Deford, Michigan
Current Conditions -  °F | °C
As of 6:14 AM on Wednesday 22 Oct 2014 (Local Time) from KCFS Reporting Station
Overcast Overcast  
Wind Chill: 43°   Ceiling: 1800
Heat Index: 43°   Visibility: 10mi
Dew Point: 38°   Wind: 0mph
Humidity: 84%   Direction: NA
Pressure: 30.3"   Gusts: NA
Location:  43.51°N, 83.19°W
Report Text: KCFS 221014Z AUTO 00000KT 10SM OVC018 06/04 A3030 RMK AO2 T00600035
Loading
Personal Weather Stations






























Interactive Weather Map
Tropical Storm Tracking
New forecast layout! Learn more

10-Day Weather Forecast

Advertisements
Track Severe Weather on mobile